Kings Bay, GA (31547)

9:29 AM EDT on August 28, 2014 (GMT -0400)
BROWNTOWN | Change Station
CLOSE
Current Station
Personal Weather Station
Location: Kingsland, GA
Elevation: 38 ft
Nearby Weather Stations

Elev 38 ft 30.81 °N, 81.80 °W | Updated 1 second ago

Clear
Clear
74.7 °F
Feels Like 73 °F
N
0.0
Wind Variable Wind from ESE
Gusts 1.0 mph

Today
High -- | Low -- °F
--% Chance of Precip.
Yesterday
High -- | Low -- °F
Precip. -- in
7:01 AM 7:54 PM
Waxing Crescent, 8% visible
Pressure 30.02 in
Visibility 10.0 miles
Clouds Clear
Heat Index 73 °F
Dew Point 73 °F
Humidity 93%
Rainfall 0.00 in
Snow Depth Not available.
UV 3 out of 12
Pollen 8.20 out of 12
Air Quality Not available.
Flu Activity Not available.
METAR KFHB 281315Z AUTO 34004KT 10SM CLR 26/20 A3002 RMK AO1

More Conditions Fewer Conditions

Pressure 30.02 in
Visibility 10.0 miles
Clouds Clear
Heat Index 73 °F
Dew Point 73 °F
Humidity 93%
Rainfall 0.00 in
Snow Depth Not available.
UV 3 out of 12
Pollen 8.20 out of 12
Air Quality Not available.
Flu Activity Not available.
METAR KFHB 281315Z AUTO 34004KT 10SM CLR 26/20 A3002 RMK AO1

More Conditions Fewer Conditions

10-Day Weather Forecast

Almanac

Astronomy

Aug. 28, 2014 Rise Set
Actual Time 7:01 AM EDT 7:54 PM EDT
Civil Twilight 6:36 AM EDT 8:19 PM EDT
Nautical Twilight 6:07 AM EDT 8:48 PM EDT
Astronomical Twilight 5:37 AM EDT 9:18 PM EDT
Moon 9:37 AM EDT 9:34 PM EDT
Length of Visible Light 13h 43m
Length of Day
12h 53m
Tomorrow will be 1m 45s shorter.
Waxing Crescent, 8% of the Moon is Illuminated
Today
Waxing Crescent
Sep 2
First Quarter
Sep 8
Full
Sep 15
Last Quarter
Sep 24
New

Today's Extremes

State Highs State Lows

Community

WunderPhotos

Upload Photos

1,747,947 photos uploaded!

Nearby

Snow Depth

Station Depth Elevation
No new snow has been reported.

Earthquake Activity

City Distance Mag. Time & Date
No recent earthquake activity has been reported nearby.
Minimum magnitude displayed is 2.5.

Coastal Water Temperatures

Place Temperature
Fernandina Beach, FL 82.0 °F
Mayport (Bar Pilots Dock), FL 82.9 °F

Nearby Weather Stations